Time;durP1;ratioP1;P1;durP2;ratioP2;P2;SDS_P1;SDS_P2;PMS_P1;PMS_P2;Temp;Humidity;BMP_temperature;BMP_pressure;BME280_temperature;BME280_humidity;BME280_pressure;Samples;Min_cycle;Max_cycle;Signal;HPM_P1;HPM_P2
2022/02/04 00:23:54;;;;;;;15.32;6.70;;;9.50;95.80;;;;;;5095927;28;20527;-66
2022/02/04 00:26:31;;;;;;;12.55;6.00;;;9.60;95.80;;;;;;5095304;28;20107;-66
2022/02/04 00:31:39;;;;;;;14.45;8.20;;;9.50;95.80;;;;;;5095829;28;20031;-67
2022/02/04 00:34:09;;;;;;;16.58;6.93;;;9.50;95.70;;;;;;5083023;28;20046;-66
2022/02/04 00:36:52;;;;;;;8.20;4.72;;;9.50;95.70;;;;;;5083819;28;20078;-66
2022/02/04 00:39:30;;;;;;;11.02;5.68;;;9.60;95.80;;;;;;5083703;28;20440;-66
2022/02/04 00:42:02;;;;;;;11.25;6.10;;;9.60;95.70;;;;;;5108808;28;20101;-67
2022/02/04 00:44:29;;;;;;;13.55;7.63;;;9.60;95.90;;;;;;5083122;28;20491;-66
2022/02/04 00:57:04;;;;;;;12.48;5.68;;;9.50;95.60;;;;;;5094677;28;20028;-66
2022/02/04 01:26:49;;;;;;;14.45;8.35;;;9.40;95.60;;;;;;5094849;28;20089;-66
2022/02/04 01:29:15;;;;;;;19.40;9.93;;;9.30;95.60;;;;;;5081204;28;20032;-66
2022/02/04 01:31:41;;;;;;;16.55;8.23;;;9.30;95.70;;;;;;5102433;28;20027;-66
2022/02/04 01:34:07;;;;;;;14.73;7.82;;;9.30;95.70;;;;;;5099707;28;20040;-66
2022/02/04 01:36:32;;;;;;;17.48;7.75;;;9.30;95.70;;;;;;5094837;28;20032;-66
2022/02/04 01:38:58;;;;;;;18.48;8.93;;;9.30;95.70;;;;;;5107282;28;20031;-66
2022/02/04 01:41:24;;;;;;;19.35;8.82;;;9.30;95.80;;;;;;5094346;28;20063;-67
2022/02/04 01:43:52;;;;;;;18.98;8.38;;;9.30;95.80;;;;;;5094082;28;20073;-67
2022/02/04 01:46:18;;;;;;;18.08;8.73;;;9.20;95.80;;;;;;5093920;28;20043;-67
2022/02/04 01:48:44;;;;;;;16.48;8.07;;;9.30;95.80;;;;;;5081308;28;20031;-66
2022/02/04 01:51:14;;;;;;;17.10;8.30;;;9.30;95.80;;;;;;5098744;28;20112;-67
2022/02/04 01:53:41;;;;;;;16.45;8.25;;;9.20;95.70;;;;;;5101478;28;20479;-66
2022/02/04 01:56:12;;;;;;;16.88;9.30;;;9.30;95.80;;;;;;5099455;28;20542;-66
2022/02/04 01:58:40;;;;;;;21.02;8.57;;;9.20;95.80;;;;;;5099808;28;20032;-66
2022/02/04 02:01:05;;;;;;;13.13;6.60;;;9.20;95.80;;;;;;5080806;28;20027;-66
2022/02/04 02:03:34;;;;;;;15.70;6.82;;;9.20;95.80;;;;;;5094134;28;20028;-66
2022/02/04 02:06:06;;;;;;;13.27;7.68;;;9.20;95.80;;;;;;5093175;28;20032;-66
2022/02/04 02:08:32;;;;;;;15.07;7.47;;;9.20;95.80;;;;;;5082362;28;20035;-66
2022/02/04 02:10:58;;;;;;;15.15;7.00;;;9.20;95.80;;;;;;5078907;28;20032;-66
2022/02/04 02:16:06;;;;;;;15.32;7.30;;;9.20;95.80;;;;;;5087852;28;20024;-66
2022/02/04 02:35:23;;;;;;;19.13;8.80;;;9.10;95.80;;;;;;5085809;28;20032;-66
2022/02/04 02:43:23;;;;;;;17.33;6.32;;;9.10;95.90;;;;;;5080284;28;20024;-66
2022/02/04 02:46:11;;;;;;;17.90;6.07;;;9.20;95.90;;;;;;5092914;28;20059;-66
2022/02/04 02:48:57;;;;;;;20.60;8.60;;;9.10;95.90;;;;;;5101034;28;20032;-66
2022/02/04 02:59:22;;;;;;;20.92;9.60;;;9.20;95.90;;;;;;5106366;28;20032;-66
2022/02/04 03:01:50;;;;;;;20.48;10.02;;;9.10;95.90;;;;;;5092795;28;20458;-66
2022/02/04 03:04:16;;;;;;;16.90;8.38;;;9.10;95.90;;;;;;5082662;28;20114;-67
2022/02/04 03:06:45;;;;;;;20.50;9.57;;;9.10;95.90;;;;;;5076302;28;20044;-66
2022/02/04 03:09:12;;;;;;;21.55;10.30;;;9.20;96.00;;;;;;5082056;28;20162;-66
2022/02/04 03:11:40;;;;;;;10.55;4.75;;;9.10;96.00;;;;;;5092975;28;20113;-66
2022/02/04 03:14:06;;;;;;;17.55;7.97;;;9.10;96.00;;;;;;5081305;28;20032;-66
2022/02/04 03:16:33;;;;;;;19.17;7.80;;;9.10;96.00;;;;;;5074894;28;20035;-67
2022/02/04 03:19:01;;;;;;;23.08;10.93;;;9.20;96.10;;;;;;5091746;28;20032;-67
2022/02/04 03:21:42;;;;;;;17.98;7.97;;;9.20;96.10;;;;;;5081929;28;20036;-66
2022/02/04 03:24:15;;;;;;;24.27;9.02;;;9.20;96.10;;;;;;5084455;28;20090;-66
2022/02/04 03:29:16;;;;;;;17.55;8.18;;;9.20;96.10;;;;;;5092524;28;20032;-66
2022/02/04 03:31:47;;;;;;;19.30;9.20;;;9.20;96.10;;;;;;5096793;28;20394;-66
2022/02/04 03:34:13;;;;;;;19.67;9.50;;;9.10;96.10;;;;;;5099928;28;20107;-66
2022/02/04 03:36:39;;;;;;;15.27;7.00;;;9.20;96.20;;;;;;5092217;28;20444;-66
2022/02/04 03:39:07;;;;;;;17.65;8.38;;;9.10;96.20;;;;;;5089549;28;20526;-66
2022/02/04 03:41:33;;;;;;;22.27;10.32;;;9.20;96.20;;;;;;5079877;28;20028;-67
2022/02/04 03:43:59;;;;;;;20.73;9.25;;;9.20;96.30;;;;;;5078659;28;20035;-67
2022/02/04 03:46:24;;;;;;;13.63;7.60;;;9.20;96.30;;;;;;5091461;28;20036;-66
2022/02/04 03:48:50;;;;;;;21.70;9.93;;;9.20;96.30;;;;;;5091983;28;20028;-66
2022/02/04 03:51:16;;;;;;;20.85;9.68;;;9.20;96.30;;;;;;5091746;28;20039;-66
2022/02/04 03:53:44;;;;;;;21.15;8.82;;;9.20;96.30;;;;;;5091865;28;20028;-65
2022/02/04 03:56:11;;;;;;;13.43;7.30;;;9.20;96.30;;;;;;5092106;28;20047;-66
2022/02/04 03:58:37;;;;;;;16.05;6.78;;;9.20;96.30;;;;;;5104896;28;20030;-66
2022/02/04 04:01:05;;;;;;;18.95;8.75;;;9.10;96.30;;;;;;5083684;28;20372;-66
2022/02/04 04:03:35;;;;;;;17.83;8.52;;;9.20;96.40;;;;;;5102022;28;20032;-66
2022/02/04 04:06:04;;;;;;;19.73;8.75;;;9.20;96.40;;;;;;5091166;28;20163;-66
2022/02/04 04:08:29;;;;;;;22.10;10.40;;;9.20;96.40;;;;;;5087066;28;20020;-66
2022/02/04 04:10:55;;;;;;;19.17;8.75;;;9.20;96.40;;;;;;5083684;28;20055;-66
2022/02/04 04:13:21;;;;;;;21.00;9.68;;;9.20;96.40;;;;;;5079741;28;20026;-66
2022/02/04 04:15:48;;;;;;;15.40;8.02;;;9.20;96.40;;;;;;5087131;28;20052;-66
2022/02/04 04:18:14;;;;;;;20.75;9.27;;;9.20;96.40;;;;;;5072604;28;20028;-66
2022/02/04 04:20:46;;;;;;;20.50;8.85;;;9.20;96.50;;;;;;5078078;28;20484;-66
2022/02/04 04:23:12;;;;;;;18.98;7.35;;;9.20;96.50;;;;;;5091664;28;20032;-66
2022/02/04 04:25:38;;;;;;;19.92;8.45;;;9.10;96.50;;;;;;5080801;28;20040;-66
2022/02/04 04:28:05;;;;;;;18.58;9.23;;;9.20;96.50;;;;;;5092520;28;20040;-67
2022/02/04 04:30:36;;;;;;;21.40;8.48;;;9.20;96.50;;;;;;5102806;28;20501;-66
2022/02/04 04:33:05;;;;;;;17.65;8.10;;;9.20;96.60;;;;;;5095004;28;20059;-66
2022/02/04 04:35:30;;;;;;;23.63;10.25;;;9.20;96.60;;;;;;5101321;28;20032;-66
2022/02/04 04:43:41;;;;;;;22.75;10.23;;;9.20;96.60;;;;;;5078505;28;20464;-66
2022/02/04 05:29:23;;;;;;;19.30;9.45;;;9.20;97.30;;;;;;5094953;28;20081;-66
2022/02/04 05:31:49;;;;;;;19.25;8.90;;;9.20;97.10;;;;;;5093905;28;20039;-66
2022/02/04 05:34:17;;;;;;;20.15;8.35;;;9.20;97.10;;;;;;5081523;28;20151;-66
2022/02/04 05:36:48;;;;;;;15.75;8.07;;;9.20;97.10;;;;;;5080689;28;20498;-67
2022/02/04 05:39:20;;;;;;;19.95;8.60;;;9.30;97.00;;;;;;5095723;28;20040;-68
2022/02/04 05:41:49;;;;;;;14.18;7.57;;;9.30;97.10;;;;;;5106542;28;20032;-66
2022/02/04 05:44:15;;;;;;;21.63;10.07;;;9.30;97.10;;;;;;5113184;28;20089;-67
2022/02/04 05:46:59;;;;;;;18.17;8.18;;;9.30;97.10;;;;;;5114237;28;20048;-69
2022/02/04 05:49:27;;;;;;;15.05;7.55;;;9.30;97.10;;;;;;5102410;28;20493;-67
2022/02/04 05:52:03;;;;;;;15.82;8.25;;;9.40;97.10;;;;;;5113151;28;20096;-67
2022/02/04 05:54:47;;;;;;;14.20;6.57;;;9.30;97.00;;;;;;5111640;28;20155;-66
2022/02/04 05:57:19;;;;;;;19.60;7.35;;;9.30;97.00;;;;;;5114692;28;20050;-66
2022/02/04 06:05:02;;;;;;;16.00;7.97;;;9.40;97.10;;;;;;5103401;28;20039;-67
2022/02/04 06:22:57;;;;;;;13.68;7.03;;;9.40;97.10;;;;;;5112656;28;20027;-66
2022/02/04 06:25:22;;;;;;;21.88;7.32;;;9.40;97.10;;;;;;5111313;28;20036;-66
2022/02/04 06:27:48;;;;;;;14.77;7.20;;;9.40;97.10;;;;;;5113419;28;20050;-66
2022/02/04 06:30:14;;;;;;;14.45;6.43;;;9.40;97.10;;;;;;5094627;28;20028;-66
2022/02/04 06:32:40;;;;;;;14.13;6.43;;;9.40;97.10;;;;;;5111959;28;20020;-67
2022/02/04 06:35:08;;;;;;;18.70;6.25;;;9.40;97.10;;;;;;5100051;28;20035;-67
2022/02/04 06:37:34;;;;;;;12.00;4.57;;;9.40;97.10;;;;;;5111820;28;20035;-66
2022/02/04 06:40:00;;;;;;;12.80;6.18;;;9.50;97.20;;;;;;5111625;28;20030;-67
2022/02/04 06:42:29;;;;;;;11.60;5.80;;;9.40;97.20;;;;;;5111459;28;20028;-67
2022/02/04 06:44:57;;;;;;;13.07;5.25;;;9.40;97.20;;;;;;5107587;28;20047;-67
2022/02/04 06:47:24;;;;;;;19.17;7.28;;;9.40;97.20;;;;;;5109532;28;20384;-68
2022/02/04 06:49:49;;;;;;;11.65;5.80;;;9.50;97.20;;;;;;5109967;28;20036;-68
2022/02/04 06:52:15;;;;;;;20.45;5.88;;;9.50;97.20;;;;;;5103334;28;20123;-68
2022/02/04 06:54:42;;;;;;;12.40;6.20;;;9.50;97.10;;;;;;5108911;28;20115;-67
2022/02/04 06:57:08;;;;;;;10.25;5.30;;;9.50;97.10;;;;;;5110984;28;20034;-76
2022/02/04 06:59:36;;;;;;;12.68;5.68;;;9.60;97.00;;;;;;5094461;28;20020;-70
2022/02/04 07:02:02;;;;;;;8.68;4.63;;;9.50;97.00;;;;;;5083651;28;20411;-68
2022/02/04 07:04:31;;;;;;;17.25;6.13;;;9.60;97.00;;;;;;5110297;28;20035;-68
2022/02/04 07:06:58;;;;;;;10.82;5.43;;;9.60;97.00;;;;;;5101486;27;20078;-65
2022/02/04 07:14:34;;;;;;;10.38;5.20;;;9.60;96.90;;;;;;5095757;28;20508;-66
2022/02/04 07:17:28;;;;;;;14.18;5.63;;;9.60;96.90;;;;;;5082123;28;20028;-67
2022/02/04 07:19:56;;;;;;;;;;;9.60;96.90;;;;;;5092463;28;20032;-65
2022/02/04 07:22:27;;;;;;;10.57;4.88;;;9.60;96.90;;;;;;5091581;28;19915;-65
2022/02/04 07:24:56;;;;;;;12.82;5.80;;;9.60;96.90;;;;;;5092312;28;20496;-65
2022/02/04 07:27:22;;;;;;;4.65;3.15;;;9.60;96.90;;;;;;5101060;28;20042;-65
2022/02/04 07:29:51;;;;;;;12.88;4.85;;;9.60;97.00;;;;;;5096533;28;20485;-65
2022/02/04 07:42:55;;;;;;;8.70;4.07;;;9.60;97.00;;;;;;5092352;28;20032;-65
2022/02/04 07:45:21;;;;;;;11.93;6.22;;;9.60;97.00;;;;;;5091727;28;20127;-65
2022/02/04 07:47:51;;;;;;;10.60;6.03;;;9.60;97.00;;;;;;5092367;28;20032;-66
2022/02/04 07:50:26;;;;;;;15.98;7.00;;;9.60;97.00;;;;;;5092552;28;20028;-65
2022/02/04 07:52:53;;;;;;;12.73;6.78;;;9.60;97.00;;;;;;5085432;28;20538;-65
2022/02/04 07:55:19;;;;;;;14.48;6.15;;;9.60;97.00;;;;;;5085393;28;20066;-65
2022/02/04 07:57:45;;;;;;;11.75;4.97;;;9.60;97.00;;;;;;5091904;28;20475;-68
2022/02/04 08:00:14;;;;;;;7.90;4.35;;;9.60;97.00;;;;;;5091929;28;20032;-66
2022/02/04 08:02:44;;;;;;;14.00;5.63;;;9.60;97.00;;;;;;5092592;28;20058;-66
2022/02/04 08:05:16;;;;;;;11.02;5.18;;;9.60;97.10;;;;;;5091259;28;20070;-66
2022/02/04 08:08:15;;;;;;;17.98;4.88;;;9.50;97.10;;;;;;5102263;28;20047;-66
2022/02/04 08:10:43;;;;;;;9.73;5.07;;;9.50;97.10;;;;;;5092004;28;20047;-66
2022/02/04 08:18:29;;;;;;;14.45;6.25;;;9.60;97.10;;;;;;5086320;28;20032;-66
2022/02/04 08:26:30;;;;;;;13.40;6.28;;;9.60;97.00;;;;;;5084033;28;20051;-63
2022/02/04 08:29:17;;;;;;;10.68;4.95;;;9.60;97.00;;;;;;5091976;28;20036;-65
2022/02/04 08:32:02;;;;;;;8.82;4.97;;;9.60;97.10;;;;;;5095544;28;20067;-66
2022/02/04 08:34:51;;;;;;;9.35;5.13;;;9.60;97.10;;;;;;5094282;28;20028;-66
2022/02/04 08:37:42;;;;;;;7.65;4.57;;;9.60;97.10;;;;;;5077175;28;20044;-66
2022/02/04 08:48:57;;;;;;;10.00;4.60;;;9.60;97.10;;;;;;5106800;28;20456;-66
2022/02/04 08:56:36;;;;;;;8.32;3.92;;;9.60;97.10;;;;;;5101112;28;20047;-66
2022/02/04 08:59:09;;;;;;;8.07;4.18;;;9.60;97.10;;;;;;5082535;28;20154;-66
2022/02/04 09:01:46;;;;;;;8.95;4.80;;;9.60;97.00;;;;;;5084397;28;20051;-66
2022/02/04 09:04:17;;;;;;;7.70;4.53;;;9.70;97.00;;;;;;5089750;28;20036;-66
2022/02/04 09:06:51;;;;;;;7.95;4.28;;;9.60;97.00;;;;;;5088755;28;20052;-66
2022/02/04 09:12:21;;;;;;;6.50;4.35;;;9.70;97.00;;;;;;5107532;28;20059;-66
2022/02/04 09:20:28;;;;;;;8.77;4.20;;;9.70;96.90;;;;;;5094296;28;20031;-66
2022/02/04 09:22:54;;;;;;;8.65;3.17;;;9.70;96.90;;;;;;5082534;28;20094;-66
2022/02/04 09:25:19;;;;;;;6.78;4.03;;;9.70;97.00;;;;;;5106816;28;20078;-67
2022/02/04 09:27:45;;;;;;;6.90;4.03;;;9.60;97.00;;;;;;5101586;28;20036;-66
2022/02/04 09:30:14;;;;;;;9.27;4.45;;;9.70;97.10;;;;;;5096554;28;20107;-66
2022/02/04 09:32:40;;;;;;;7.72;3.70;;;9.70;97.10;;;;;;5093093;28;20103;-66
2022/02/04 09:35:09;;;;;;;10.80;4.25;;;9.60;97.10;;;;;;5096275;28;20028;-66
2022/02/04 09:37:35;;;;;;;10.05;4.75;;;9.60;97.20;;;;;;5107107;28;20039;-66
2022/02/04 09:40:01;;;;;;;8.63;4.30;;;9.60;97.20;;;;;;5079233;28;20031;-66
2022/02/04 09:42:28;;;;;;;7.63;4.72;;;9.60;97.20;;;;;;5085587;28;20077;-67
2022/02/04 09:44:54;;;;;;;10.80;3.60;;;9.70;97.20;;;;;;5090284;28;20070;-65
2022/02/04 09:47:25;;;;;;;14.45;5.47;;;9.70;97.20;;;;;;5094243;28;20444;-67
2022/02/04 09:49:57;;;;;;;7.80;4.63;;;9.70;97.20;;;;;;5094080;28;20110;-65
2022/02/04 10:14:50;;;;;;;8.13;5.85;;;9.80;97.50;;;;;;5094022;28;20702;-66
2022/02/04 10:17:23;;;;;;;10.52;6.55;;;9.80;97.60;;;;;;5086032;28;20039;-66
2022/02/04 10:19:49;;;;;;;8.68;5.25;;;9.80;97.50;;;;;;5099386;28;20040;-66
2022/02/04 10:22:15;;;;;;;10.35;5.68;;;9.70;97.60;;;;;;5080189;28;20023;-66
2022/02/04 10:24:41;;;;;;;11.25;5.10;;;9.70;97.60;;;;;;5082412;28;20032;-66
2022/02/04 10:27:18;;;;;;;13.07;5.63;;;9.80;97.70;;;;;;5091330;28;20382;-66
2022/02/04 10:29:58;;;;;;;6.50;4.80;;;9.80;97.60;;;;;;5093487;28;20115;-67
2022/02/04 10:32:30;;;;;;;11.25;5.30;;;9.80;97.60;;;;;;5103897;28;20039;-66
2022/02/04 10:35:12;;;;;;;8.82;4.38;;;9.80;97.50;;;;;;5085381;28;20387;-66
2022/02/04 10:37:42;;;;;;;8.15;4.75;;;9.90;97.50;;;;;;5082389;28;20033;-66
2022/02/04 10:40:43;;;;;;;11.10;5.22;;;9.90;97.50;;;;;;5089112;28;20085;-66
2022/02/04 10:43:26;;;;;;;10.43;5.03;;;10.00;97.50;;;;;;5081653;28;20032;-66
2022/02/04 10:46:05;;;;;;;9.40;4.95;;;9.90;97.40;;;;;;5089616;28;20180;-66
2022/02/04 10:48:49;;;;;;;9.00;5.93;;;10.00;97.50;;;;;;5100729;28;20024;-66
2022/02/04 10:51:38;;;;;;;10.60;4.30;;;9.90;97.40;;;;;;5094350;28;20032;-66
2022/02/04 10:54:47;;;;;;;5.40;3.28;;;10.00;97.50;;;;;;5090766;28;20032;-65
2022/02/04 10:59:58;;;;;;;7.97;5.22;;;10.00;97.60;;;;;;5080398;28;20422;-65
2022/02/04 11:05:05;;;;;;;11.43;5.60;;;10.10;97.50;;;;;;5100799;28;20036;-65
2022/02/04 11:50:34;;;;;;;8.98;4.05;;;10.20;97.30;;;;;;5092706;28;19908;-67
2022/02/04 11:54:54;;;;;;;8.18;3.90;;;10.20;97.20;;;;;;5080035;28;20048;-66
2022/02/04 11:57:34;;;;;;;4.25;3.08;;;10.20;97.10;;;;;;5091862;28;20124;-67
2022/02/04 12:00:18;;;;;;;9.13;3.55;;;10.10;97.20;;;;;;5080441;28;20044;-68
2022/02/04 12:02:52;;;;;;;5.25;3.53;;;10.20;97.10;;;;;;5109454;28;20035;-65
2022/02/04 12:05:17;;;;;;;;;;;10.20;97.10;;;;;;5111134;28;20487;-66
2022/02/04 12:07:52;;;;;;;7.55;4.18;;;10.20;97.10;;;;;;5096174;28;19925;-66
2022/02/04 12:10:23;;;;;;;5.57;3.53;;;10.20;97.10;;;;;;5091863;28;20029;-65
2022/02/04 12:12:56;;;;;;;8.23;3.35;;;10.10;97.10;;;;;;5080030;28;20028;-65
2022/02/04 12:15:28;;;;;;;7.53;3.40;;;10.10;97.10;;;;;;5109423;28;20036;-66
2022/02/04 12:17:58;;;;;;;11.00;3.47;;;10.20;97.10;;;;;;5086985;28;20159;-66
2022/02/04 12:20:56;;;;;;;6.45;3.67;;;10.20;97.10;;;;;;5084346;28;20130;-66
2022/02/04 12:23:28;;;;;;;7.80;3.50;;;10.20;97.10;;;;;;5097172;28;20047;-66
2022/02/04 12:26:02;;;;;;;7.93;4.05;;;10.20;97.10;;;;;;5085734;28;20040;-66
2022/02/04 12:28:43;;;;;;;7.88;3.40;;;10.20;97.00;;;;;;5103559;28;20035;-66
2022/02/04 12:31:11;;;;;;;4.80;3.25;;;10.20;97.10;;;;;;5105122;28;20035;-66
2022/02/04 12:34:00;;;;;;;8.13;3.08;;;10.20;97.00;;;;;;5098802;28;20047;-66
2022/02/04 12:36:30;;;;;;;5.85;2.42;;;10.30;96.90;;;;;;5095671;28;20073;-66
2022/02/04 12:39:00;;;;;;;6.18;2.67;;;10.30;96.90;;;;;;5082229;28;20395;-66
2022/02/04 12:41:30;;;;;;;4.18;2.80;;;10.30;97.00;;;;;;5091733;28;20032;-66
2022/02/04 12:43:58;;;;;;;10.25;2.42;;;10.30;96.90;;;;;;5091206;28;20055;-66
2022/02/04 12:46:26;;;;;;;5.68;3.20;;;10.30;96.80;;;;;;5100048;28;20379;-66
2022/02/04 12:48:58;;;;;;;7.95;2.95;;;10.30;96.80;;;;;;5102571;27;20028;-66
2022/02/04 12:51:33;;;;;;;3.85;2.35;;;10.30;96.80;;;;;;5095440;28;20051;-66
2022/02/04 12:53:59;;;;;;;7.65;2.67;;;10.30;96.80;;;;;;5089928;28;20046;-66
2022/02/04 12:59:39;;;;;;;7.00;2.58;;;10.30;96.90;;;;;;5097949;28;20035;-66
2022/02/04 13:08:11;;;;;;;4.53;2.08;;;10.30;97.10;;;;;;5094330;28;20066;-66
2022/02/04 13:10:40;;;;;;;4.28;2.30;;;10.20;97.10;;;;;;5105269;28;20032;-66
2022/02/04 13:13:10;;;;;;;4.95;2.20;;;10.20;97.20;;;;;;5097291;28;20042;-66
2022/02/04 13:15:38;;;;;;;5.38;2.58;;;10.20;97.20;;;;;;5108203;28;20027;-67
2022/02/04 13:18:09;;;;;;;1.98;1.65;;;10.10;97.10;;;;;;5084880;28;20032;-66
2022/02/04 13:20:36;;;;;;;3.63;1.77;;;10.10;97.10;;;;;;5092846;28;20024;-66
2022/02/04 13:23:08;;;;;;;1.92;0.65;;;10.00;97.20;;;;;;5093797;28;20501;-66
2022/02/04 13:25:43;;;;;;;3.35;2.17;;;10.10;97.00;;;;;;5082709;28;20498;-66
2022/02/04 13:28:17;;;;;;;5.13;1.17;;;10.20;97.00;;;;;;5093414;28;20028;-66
2022/02/04 13:30:59;;;;;;;5.43;1.08;;;10.30;96.20;;;;;;5095061;28;20035;-66
2022/02/04 13:33:30;;;;;;;1.90;0.95;;;10.30;95.50;;;;;;5094592;28;20036;-66
2022/02/04 13:36:00;;;;;;;2.88;0.57;;;10.40;94.80;;;;;;5105757;28;20032;-66
2022/02/04 13:38:45;;;;;;;0.88;0.40;;;10.50;94.60;;;;;;5105842;28;20030;-66
2022/02/04 13:41:23;;;;;;;3.97;1.00;;;10.40;95.20;;;;;;5110452;28;20032;-67
2022/02/04 13:44:13;;;;;;;6.30;0.80;;;10.40;94.50;;;;;;5104562;28;20023;-66
2022/02/04 13:46:37;;;;;;;1.73;0.60;;;10.40;93.20;;;;;;5103892;28;20117;-66
2022/02/04 13:49:20;;;;;;;1.27;0.30;;;10.30;93.20;;;;;;5105250;28;20020;-65
2022/02/04 13:52:07;;;;;;;0.60;0.50;;;10.30;93.10;;;;;;5104147;28;20047;-67
2022/02/04 13:54:42;;;;;;;1.42;0.98;;;10.30;93.00;;;;;;5113044;28;20091;-65
2022/02/04 13:59:50;;;;;;;2.20;0.73;;;10.20;92.40;;;;;;5106691;28;20032;-67
2022/02/04 14:02:19;;;;;;;1.45;0.50;;;10.10;92.00;;;;;;5107862;28;20138;-66
2022/02/04 14:04:58;;;;;;;2.40;0.35;;;10.10;92.30;;;;;;5108826;28;20039;-66
2022/02/04 14:07:41;;;;;;;1.13;0.43;;;10.00;92.10;;;;;;5104743;28;20510;-66
2022/02/04 14:10:32;;;;;;;2.55;0.30;;;10.00;93.00;;;;;;5100476;28;20034;-66
2022/02/04 14:13:20;;;;;;;1.45;0.50;;;9.90;93.30;;;;;;5109510;28;20114;-66
2022/02/04 14:15:54;;;;;;;3.83;0.52;;;9.90;92.70;;;;;;5106290;28;20029;-66
2022/02/04 14:18:20;;;;;;;0.35;0.35;;;9.80;92.50;;;;;;5105063;28;20068;-66
2022/02/04 14:20:46;;;;;;;0.75;0.63;;;9.70;92.20;;;;;;5105335;28;20078;-66
2022/02/04 14:23:13;;;;;;;2.95;0.40;;;9.70;92.30;;;;;;5106863;28;20043;-66
2022/02/04 14:26:03;;;;;;;4.30;0.50;;;9.70;92.40;;;;;;5103659;28;20085;-66
2022/02/04 14:28:50;;;;;;;3.67;0.75;;;9.70;92.70;;;;;;5111569;28;20046;-67
2022/02/04 14:31:43;;;;;;;2.22;0.57;;;9.60;92.10;;;;;;5104416;28;20032;-67
2022/02/04 14:36:52;;;;;;;0.40;0.40;;;9.50;92.40;;;;;;5096241;28;20028;-66
2022/02/04 14:53:11;;;;;;;1.95;0.43;;;9.30;92.10;;;;;;5106576;28;20106;-66
2022/02/04 14:58:43;;;;;;;2.47;1.00;;;9.20;91.90;;;;;;5107021;28;20382;-66
2022/02/04 15:01:25;;;;;;;1.70;0.50;;;9.20;91.90;;;;;;5100739;28;20027;-66
2022/02/04 15:04:00;;;;;;;0.40;0.40;;;9.20;91.90;;;;;;5103110;28;20043;-66
2022/02/04 15:06:31;;;;;;;3.58;1.30;;;9.10;92.20;;;;;;5104047;28;20101;-66
2022/02/04 15:08:57;;;;;;;2.78;0.85;;;9.10;92.00;;;;;;5102593;28;20119;-67
2022/02/04 15:11:30;;;;;;;5.68;1.15;;;9.10;91.70;;;;;;5103320;28;20523;-66
2022/02/04 15:13:57;;;;;;;3.17;0.80;;;9.10;91.70;;;;;;5101636;28;20032;-67
2022/02/04 15:16:23;;;;;;;5.93;0.73;;;9.00;91.70;;;;;;5110284;28;20048;-66
2022/02/04 15:18:49;;;;;;;3.70;1.10;;;8.90;91.80;;;;;;5108617;28;20080;-66
2022/02/04 15:21:17;;;;;;;1.92;0.82;;;8.90;92.20;;;;;;5104299;28;20423;-66
2022/02/04 15:23:47;;;;;;;2.90;0.82;;;8.90;92.50;;;;;;5105036;28;20020;-66
2022/02/04 15:26:14;;;;;;;2.85;0.73;;;8.90;92.60;;;;;;5101933;28;20047;-66
2022/02/04 15:28:50;;;;;;;6.10;1.17;;;8.80;92.70;;;;;;5104563;28;20581;-66
2022/02/04 15:34:00;;;;;;;1.65;1.00;;;8.80;92.70;;;;;;5105449;28;20076;-66
2022/02/04 15:36:30;;;;;;;3.60;1.05;;;8.70;92.70;;;;;;5108469;28;20042;-66
2022/02/04 15:38:57;;;;;;;5.72;1.10;;;8.70;92.70;;;;;;5085803;28;20520;-67
2022/02/04 15:41:28;;;;;;;2.78;0.70;;;8.60;92.60;;;;;;5096475;28;20052;-66
2022/02/04 15:43:57;;;;;;;8.68;1.00;;;8.70;92.50;;;;;;5106680;28;20456;-67
2022/02/04 15:52:02;;;;;;;4.85;1.27;;;8.60;92.40;;;;;;5096815;28;20074;-72
2022/02/04 16:02:26;;;;;;;1.05;0.70;;;8.50;92.40;;;;;;5107051;28;20479;-68
2022/02/04 16:04:53;;;;;;;3.45;1.00;;;8.50;92.30;;;;;;5109437;28;20031;-66
2022/02/04 16:07:21;;;;;;;2.25;0.80;;;8.50;92.30;;;;;;5103052;28;20034;-66
2022/02/04 16:09:55;;;;;;;5.20;1.02;;;8.50;92.20;;;;;;5107095;28;20106;-66
2022/02/04 16:12:27;;;;;;;11.25;1.38;;;8.50;92.20;;;;;;5103200;28;20051;-66
2022/02/04 16:17:55;;;;;;;1.23;0.70;;;8.40;92.60;;;;;;5017880;28;20042;-65
2022/02/04 16:20:38;;;;;;;2.28;0.60;;;8.50;92.80;;;;;;5102575;28;20028;-66
2022/02/04 16:23:09;;;;;;;0.37;0.37;;;8.40;92.90;;;;;;5105830;28;20042;-66
2022/02/04 16:25:56;;;;;;;1.08;0.88;;;8.40;92.90;;;;;;5096629;28;20097;-67
2022/02/04 16:28:41;;;;;;;4.80;0.90;;;8.30;93.00;;;;;;5102077;28;20056;-67
2022/02/04 16:31:14;;;;;;;0.60;0.60;;;8.30;93.10;;;;;;5099062;28;20048;-73
2022/02/04 16:33:40;;;;;;;0.70;0.70;;;8.20;93.00;;;;;;5103004;28;20494;-66
2022/02/04 16:36:12;;;;;;;0.28;0.22;;;8.30;93.10;;;;;;5092060;28;20070;-67
2022/02/04 16:38:40;;;;;;;2.35;1.00;;;8.30;93.20;;;;;;5090794;28;20075;-67
2022/02/04 16:41:09;;;;;;;4.18;1.00;;;8.20;93.20;;;;;;5104845;28;20023;-67
2022/02/04 16:43:35;;;;;;;4.53;0.90;;;8.20;93.20;;;;;;5078858;28;20032;-66
2022/02/04 16:46:02;;;;;;;0.80;0.50;;;8.20;93.20;;;;;;5090941;28;20505;-67
2022/02/04 16:48:28;;;;;;;2.42;1.05;;;8.20;93.20;;;;;;5084605;28;20025;-67
2022/02/04 16:50:54;;;;;;;8.10;1.02;;;8.20;93.20;;;;;;5102660;28;20085;-66
2022/02/04 16:53:20;;;;;;;0.55;0.40;;;8.10;93.10;;;;;;5102342;28;20036;-67
2022/02/04 16:55:46;;;;;;;1.38;0.40;;;8.20;93.20;;;;;;5105835;28;20066;-67
2022/02/04 16:58:11;;;;;;;1.90;0.38;;;8.20;93.20;;;;;;5112375;28;20115;-67
2022/02/04 17:00:37;;;;;;;5.32;0.68;;;8.20;93.20;;;;;;5097068;28;20442;-67
2022/02/04 17:03:08;;;;;;;2.30;0.90;;;8.10;93.20;;;;;;5094361;28;20106;-67
2022/02/04 17:05:48;;;;;;;2.63;0.82;;;8.00;93.20;;;;;;5103345;28;20542;-67
2022/02/04 17:08:22;;;;;;;2.08;0.63;;;8.00;93.20;;;;;;5099727;28;20042;-68
2022/02/04 17:10:51;;;;;;;2.55;1.67;;;8.00;93.20;;;;;;5106455;28;20200;-67
2022/02/04 17:13:18;;;;;;;0.63;0.60;;;7.90;93.20;;;;;;5106224;28;20035;-67
2022/02/04 17:15:44;;;;;;;1.25;0.60;;;7.90;93.40;;;;;;5104154;28;20028;-67
2022/02/04 17:18:11;;;;;;;0.63;0.63;;;7.90;93.50;;;;;;5094707;28;20060;-67
2022/02/04 17:20:38;;;;;;;0.30;0.30;;;7.90;93.50;;;;;;5100909;28;20055;-67
2022/02/04 17:23:08;;;;;;;1.02;0.63;;;7.80;93.50;;;;;;5092960;28;20097;-67
2022/02/04 17:25:35;;;;;;;1.55;0.55;;;7.90;93.60;;;;;;5102442;28;20074;-67
2022/02/04 17:28:02;;;;;;;6.47;1.17;;;7.90;93.60;;;;;;5106058;28;20077;-67
2022/02/04 17:30:28;;;;;;;6.68;0.90;;;7.80;93.50;;;;;;5104650;28;20145;-67
2022/02/04 17:32:54;;;;;;;4.28;1.45;;;7.80;93.60;;;;;;5099576;28;20029;-67
2022/02/04 17:35:22;;;;;;;2.85;1.10;;;7.80;93.50;;;;;;5092442;28;20490;-68
2022/02/04 17:37:51;;;;;;;7.35;1.20;;;7.70;93.50;;;;;;5103210;28;20411;-70
2022/02/04 17:40:17;;;;;;;2.10;0.85;;;7.70;93.50;;;;;;5102726;28;20047;-69
2022/02/04 17:42:44;;;;;;;9.93;1.67;;;7.60;93.60;;;;;;5100941;28;20081;-68
2022/02/04 17:45:17;;;;;;;4.53;1.45;;;7.50;93.80;;;;;;5097912;28;20119;-70
2022/02/04 17:47:51;;;;;;;3.05;1.15;;;7.40;93.90;;;;;;5107042;28;20035;-70
2022/02/04 17:50:24;;;;;;;3.83;1.67;;;7.30;94.10;;;;;;5094626;28;20031;-71
2022/02/04 17:52:57;;;;;;;2.72;1.13;;;7.30;94.20;;;;;;5104006;28;20023;-70
2022/02/04 17:55:29;;;;;;;8.05;1.40;;;7.20;94.10;;;;;;5105647;28;20044;-68
2022/02/04 17:58:09;;;;;;;3.13;1.17;;;7.20;94.30;;;;;;5103256;28;20417;-67
2022/02/04 18:05:56;;;;;;;4.80;1.42;;;7.10;94.10;;;;;;5104503;28;20036;-68
2022/02/04 18:08:23;;;;;;;5.35;1.05;;;7.10;94.20;;;;;;5107060;28;20028;-68
2022/02/04 18:10:49;;;;;;;5.05;1.63;;;7.10;94.30;;;;;;5110083;28;20035;-68
2022/02/04 18:13:16;;;;;;;3.53;0.95;;;7.00;94.30;;;;;;5106660;28;20020;-68
2022/02/04 18:15:43;;;;;;;4.85;1.40;;;7.00;94.30;;;;;;5107843;28;20047;-68
2022/02/04 18:18:10;;;;;;;5.60;1.48;;;7.10;94.30;;;;;;5105391;28;20028;-68
2022/02/04 18:20:36;;;;;;;3.92;1.50;;;7.10;94.30;;;;;;5104882;27;20035;-68
2022/02/04 18:23:03;;;;;;;5.65;1.52;;;7.10;94.30;;;;;;5094028;28;20027;-68
2022/02/04 18:25:30;;;;;;;7.60;1.73;;;7.10;94.20;;;;;;5098538;28;20123;-68
2022/02/04 18:27:56;;;;;;;5.07;1.10;;;7.10;94.20;;;;;;5102404;28;20039;-68
2022/02/04 18:30:23;;;;;;;9.63;1.63;;;7.10;94.30;;;;;;5101925;28;20043;-68
2022/02/04 18:32:52;;;;;;;8.77;1.83;;;7.10;94.30;;;;;;5109816;28;20027;-68
2022/02/04 18:35:22;;;;;;;8.07;4.30;;;7.10;94.20;;;;;;5087598;28;20437;-71
2022/02/04 18:37:58;;;;;;;8.00;1.98;;;7.00;94.10;;;;;;5099880;28;20428;-68
2022/02/04 18:45:48;;;;;;;5.75;1.73;;;7.00;94.10;;;;;;5105836;28;20075;-70
2022/02/04 18:48:18;;;;;;;6.18;1.95;;;6.90;94.10;;;;;;5098021;28;20040;-68
2022/02/04 18:53:56;;;;;;;10.00;1.65;;;6.80;94.30;;;;;;5098175;28;20036;-68
2022/02/04 18:59:06;;;;;;;14.73;1.13;;;6.80;94.40;;;;;;5069889;28;20054;-69
2022/02/04 19:01:32;;;;;;;13.48;2.63;;;6.70;94.40;;;;;;5097476;28;20119;-68
2022/02/04 19:04:03;;;;;;;10.50;1.58;;;6.70;94.50;;;;;;5096423;28;20026;-68
2022/02/04 19:06:40;;;;;;;13.55;2.67;;;6.70;94.50;;;;;;5101494;28;20039;-68